Airfield :







YOU CAN JOIN US ON...

 
LOGIN :

Register | Disclaimer

   EN    FR    IT 

 









Legend :    VFR   Marginal VFR   IFR   Intensive IFR   Very Intensive IFR
Visi :
Ceiling :
>= 8 km
>= 3000ft
5 to 8 km
1000 to 3000 ft
1500m to 5 km
500 to 1000 ft
800 to 1500m
200 to 500 ft
< 800m
< 200 ft
Symbols :   Thunderstorms  Fog  Heavy snow  Heavy precipitations  Wind > 20 kt






- Airport Elevation : 160 ft
- IATA code : YYG


CYYG - Charlottetown

CURRENT METAR :
  • 170300Z 22005KT 15SM SKC 13/08 A3013 RMK SLP204

EXPIRED METARs :
  • 170200Z 20006KT 15SM FEW100 FEW240 14/07 A3013 RMK AC1CI1 AC TR SLP206
  • 170100Z 20006KT 15SM FEW100 SCT240 14/06 A3013 RMK AC1CI2 SLP207
  • 170000Z 20007KT 15SM FEW100 SCT250 15/04 A3013 RMK AC1CI2 SLP205
  • 162300Z 21011KT 15SM FEW250 17/04 A3012 RMK CI2 SLP202

TAF TAF CYYG
Valid from the 17 at 00:00 until the 17 at 12:00 UTC


162340Z 1700/1712 20010KT P6SM SKC
BECMG 1700/1701 18005KT
BECMG 1709/1711 23010KT RMK NXT FCST BY 170600Z
CZQM FIR / North America



MET'MAP, your aeronautical weather chart ! - Copyright ORBIFLY December 2007 - Disclaimer

ORBIFLY MET'MAP TEAM :

Programming & Development : Alexandra Zaïnal
Original concept : Baudouin d'Aumeries
Technical & hardware support : Manuel Goepfert
Assistance : Marc-Olivier Méhu




SOURCES & CREDITS :

   NOAA